sensor_id;sensor_type;location;lat;lon;timestamp;pressure;altitude;pressure_sealevel;temperature;humidity
9764;BME280;4921;43.214;27.936;2022-12-31T00:00:57;102069.03;;;11.19;85.84
9764;BME280;4921;43.214;27.936;2022-12-31T00:03:24;102069.88;;;11.20;85.27
9764;BME280;4921;43.214;27.936;2022-12-31T00:05:51;102090.06;;;11.05;86.89
9764;BME280;4921;43.214;27.936;2022-12-31T00:08:19;102088.31;;;10.90;88.36
9764;BME280;4921;43.214;27.936;2022-12-31T00:10:47;102090.06;;;10.76;89.81
9764;BME280;4921;43.214;27.936;2022-12-31T00:13:14;102093.09;;;10.68;91.07
9764;BME280;4921;43.214;27.936;2022-12-31T00:15:42;102089.97;;;10.61;91.14
9764;BME280;4921;43.214;27.936;2022-12-31T00:18:09;102101.78;;;10.54;92.49
9764;BME280;4921;43.214;27.936;2022-12-31T00:20:38;102102.34;;;10.59;92.30
9764;BME280;4921;43.214;27.936;2022-12-31T00:23:05;102100.94;;;10.54;92.46
9764;BME280;4921;43.214;27.936;2022-12-31T00:25:33;102112.31;;;10.54;92.24
9764;BME280;4921;43.214;27.936;2022-12-31T00:28:02;102103.38;;;10.57;92.14
9764;BME280;4921;43.214;27.936;2022-12-31T00:30:29;102105.84;;;10.44;92.53
9764;BME280;4921;43.214;27.936;2022-12-31T00:32:56;102103.38;;;10.57;90.24
9764;BME280;4921;43.214;27.936;2022-12-31T00:35:23;102103.66;;;10.37;91.87
9764;BME280;4921;43.214;27.936;2022-12-31T00:37:51;102111.53;;;10.04;95.75
9764;BME280;4921;43.214;27.936;2022-12-31T00:40:18;102113.31;;;10.04;97.01
9764;BME280;4921;43.214;27.936;2022-12-31T00:42:45;102116.06;;;9.85;99.22
9764;BME280;4921;43.214;27.936;2022-12-31T00:45:13;102119.84;;;9.79;99.76
9764;BME280;4921;43.214;27.936;2022-12-31T00:47:40;102142.59;;;9.80;100.00
9764;BME280;4921;43.214;27.936;2022-12-31T00:50:08;102130.69;;;9.73;100.00
9764;BME280;4921;43.214;27.936;2022-12-31T00:52:35;102131.88;;;9.68;100.00
9764;BME280;4921;43.214;27.936;2022-12-31T00:55:03;102117.78;;;9.69;100.00
9764;BME280;4921;43.214;27.936;2022-12-31T00:57:30;102126.97;;;9.77;100.00
9764;BME280;4921;43.214;27.936;2022-12-31T00:59:57;102132.16;;;9.79;100.00
9764;BME280;4921;43.214;27.936;2022-12-31T01:02:25;102133.41;;;9.72;100.00
9764;BME280;4921;43.214;27.936;2022-12-31T01:04:52;102132.53;;;9.71;100.00
9764;BME280;4921;43.214;27.936;2022-12-31T01:07:19;102128.38;;;9.67;100.00
9764;BME280;4921;43.214;27.936;2022-12-31T01:09:46;102129.28;;;9.66;100.00
9764;BME280;4921;43.214;27.936;2022-12-31T01:12:13;102137.19;;;9.66;100.00
9764;BME280;4921;43.214;27.936;2022-12-31T01:14:40;102135.03;;;9.57;100.00
9764;BME280;4921;43.214;27.936;2022-12-31T01:17:07;102130.72;;;9.56;100.00
9764;BME280;4921;43.214;27.936;2022-12-31T01:19:36;102133.34;;;9.56;100.00
9764;BME280;4921;43.214;27.936;2022-12-31T01:22:02;102128.53;;;9.64;100.00
9764;BME280;4921;43.214;27.936;2022-12-31T01:24:29;102132.09;;;9.63;100.00
9764;BME280;4921;43.214;27.936;2022-12-31T01:26:57;102115.09;;;9.70;100.00
9764;BME280;4921;43.214;27.936;2022-12-31T01:29:24;102127.75;;;9.62;100.00
9764;BME280;4921;43.214;27.936;2022-12-31T01:31:52;102132.09;;;9.63;100.00
9764;BME280;4921;43.214;27.936;2022-12-31T01:34:18;102127.63;;;9.65;100.00
9764;BME280;4921;43.214;27.936;2022-12-31T01:36:47;102120.06;;;9.59;100.00
9764;BME280;4921;43.214;27.936;2022-12-31T01:39:14;102123.38;;;9.63;100.00
9764;BME280;4921;43.214;27.936;2022-12-31T01:41:43;102129.28;;;9.66;100.00
9764;BME280;4921;43.214;27.936;2022-12-31T01:44:47;102111.75;;;9.67;100.00
9764;BME280;4921;43.214;27.936;2022-12-31T01:47:17;102125.84;;;9.66;100.00
9764;BME280;4921;43.214;27.936;2022-12-31T01:49:48;102123.75;;;9.72;100.00
9764;BME280;4921;43.214;27.936;2022-12-31T01:52:21;102124.91;;;9.67;100.00
9764;BME280;4921;43.214;27.936;2022-12-31T01:54:52;102114.56;;;9.64;100.00
9764;BME280;4921;43.214;27.936;2022-12-31T01:57:21;102122.19;;;9.85;100.00
9764;BME280;4921;43.214;27.936;2022-12-31T01:59:49;102121.16;;;9.88;99.39
9764;BME280;4921;43.214;27.936;2022-12-31T02:02:17;102117.00;;;9.84;99.97
9764;BME280;4921;43.214;27.936;2022-12-31T02:04:44;102124.72;;;9.87;99.64
9764;BME280;4921;43.214;27.936;2022-12-31T02:07:11;102122.63;;;9.93;98.30
9764;BME280;4921;43.214;27.936;2022-12-31T02:09:41;102119.00;;;9.96;96.34
9764;BME280;4921;43.214;27.936;2022-12-31T02:12:08;102119.38;;;9.88;98.38
9764;BME280;4921;43.214;27.936;2022-12-31T02:14:38;102122.97;;;10.03;97.00
9764;BME280;4921;43.214;27.936;2022-12-31T02:17:10;102126.44;;;10.04;96.35
9764;BME280;4921;43.214;27.936;2022-12-31T02:20:17;102129.41;;;9.97;96.11
9764;BME280;4921;43.214;27.936;2022-12-31T02:23:06;102125.50;;;9.89;98.38
9764;BME280;4921;43.214;27.936;2022-12-31T02:26:11;102135.22;;;9.87;98.78
9764;BME280;4921;43.214;27.936;2022-12-31T02:31:36;102147.97;;;9.77;100.00
9764;BME280;4921;43.214;27.936;2022-12-31T02:34:07;102139.88;;;9.82;98.88
9764;BME280;4921;43.214;27.936;2022-12-31T02:36:38;102137.66;;;9.74;98.60
9764;BME280;4921;43.214;27.936;2022-12-31T02:39:06;102135.50;;;9.65;100.00
9764;BME280;4921;43.214;27.936;2022-12-31T02:41:35;102132.34;;;9.59;100.00
9764;BME280;4921;43.214;27.936;2022-12-31T02:44:23;102131.88;;;9.51;100.00
9764;BME280;4921;43.214;27.936;2022-12-31T02:46:58;102122.69;;;9.42;100.00
9764;BME280;4921;43.214;27.936;2022-12-31T02:49:32;102133.34;;;9.56;100.00
9764;BME280;4921;43.214;27.936;2022-12-31T02:52:09;102136.28;;;9.50;100.00
9764;BME280;4921;43.214;27.936;2022-12-31T02:54:43;102136.97;;;9.37;100.00
9764;BME280;4921;43.214;27.936;2022-12-31T02:57:16;102141.66;;;9.30;100.00
9764;BME280;4921;43.214;27.936;2022-12-31T02:59:50;102144.84;;;9.37;100.00
9764;BME280;4921;43.214;27.936;2022-12-31T03:02:39;102149.84;;;9.24;100.00
9764;BME280;4921;43.214;27.936;2022-12-31T03:05:08;102151.03;;;9.18;100.00
9764;BME280;4921;43.214;27.936;2022-12-31T03:07:39;102156.19;;;9.20;100.00
9764;BME280;4921;43.214;27.936;2022-12-31T03:10:07;102153.47;;;9.21;100.00
9764;BME280;4921;43.214;27.936;2022-12-31T03:12:35;102151.47;;;9.09;100.00
9764;BME280;4921;43.214;27.936;2022-12-31T03:15:16;102155.84;;;9.09;100.00
9764;BME280;4921;43.214;27.936;2022-12-31T03:17:56;102154.25;;;9.23;100.00
9764;BME280;4921;43.214;27.936;2022-12-31T03:20:25;102159.44;;;9.25;100.00
9764;BME280;4921;43.214;27.936;2022-12-31T03:23:12;102155.78;;;9.10;100.00
9764;BME280;4921;43.214;27.936;2022-12-31T03:25:40;102161.25;;;9.23;100.00
9764;BME280;4921;43.214;27.936;2022-12-31T03:28:07;102159.13;;;9.14;100.00
9764;BME280;4921;43.214;27.936;2022-12-31T03:30:36;102159.94;;;9.14;100.00
9764;BME280;4921;43.214;27.936;2022-12-31T03:33:06;102166.22;;;9.12;100.00
9764;BME280;4921;43.214;27.936;2022-12-31T03:35:35;102167.03;;;9.12;100.00
9764;BME280;4921;43.214;27.936;2022-12-31T03:38:03;102164.09;;;9.01;100.00
9764;BME280;4921;43.214;27.936;2022-12-31T03:40:31;102162.09;;;9.06;100.00
9764;BME280;4921;43.214;27.936;2022-12-31T03:42:59;102169.97;;;9.06;100.00
9764;BME280;4921;43.214;27.936;2022-12-31T03:45:26;102173.66;;;9.02;100.00
9764;BME280;4921;43.214;27.936;2022-12-31T03:47:53;102165.31;;;8.94;100.00
9764;BME280;4921;43.214;27.936;2022-12-31T03:50:21;102169.06;;;8.89;100.00
9764;BME280;4921;43.214;27.936;2022-12-31T03:52:48;102171.66;;;8.90;100.00
9764;BME280;4921;43.214;27.936;2022-12-31T03:55:15;102169.53;;;8.80;100.00
9764;BME280;4921;43.214;27.936;2022-12-31T03:57:42;102154.00;;;8.75;100.00
9764;BME280;4921;43.214;27.936;2022-12-31T04:00:11;102176.47;;;8.81;100.00
9764;BME280;4921;43.214;27.936;2022-12-31T04:02:39;102179.59;;;8.70;100.00
9764;BME280;4921;43.214;27.936;2022-12-31T04:05:06;102174.66;;;8.64;100.00
9764;BME280;4921;43.214;27.936;2022-12-31T04:07:35;102169.66;;;8.77;100.00
9764;BME280;4921;43.214;27.936;2022-12-31T04:10:02;102178.41;;;8.77;100.00
9764;BME280;4921;43.214;27.936;2022-12-31T04:12:29;102181.16;;;8.74;100.00
9764;BME280;4921;43.214;27.936;2022-12-31T04:14:56;102177.94;;;8.86;100.00
9764;BME280;4921;43.214;27.936;2022-12-31T04:17:24;102178.44;;;8.76;100.00
9764;BME280;4921;43.214;27.936;2022-12-31T04:19:51;102182.91;;;8.74;100.00
9764;BME280;4921;43.214;27.936;2022-12-31T04:22:18;102181.22;;;8.73;100.00
9764;BME280;4921;43.214;27.936;2022-12-31T04:24:46;102188.94;;;8.57;100.00
9764;BME280;4921;43.214;27.936;2022-12-31T04:27:13;102189.84;;;8.56;100.00
9764;BME280;4921;43.214;27.936;2022-12-31T04:29:40;102197.81;;;8.55;100.00
9764;BME280;4921;43.214;27.936;2022-12-31T04:32:08;102188.38;;;8.51;100.00
9764;BME280;4921;43.214;27.936;2022-12-31T04:34:35;102199.22;;;8.43;100.00
9764;BME280;4921;43.214;27.936;2022-12-31T04:37:02;102182.50;;;8.45;100.00
9764;BME280;4921;43.214;27.936;2022-12-31T04:39:29;102194.78;;;8.45;100.00
9764;BME280;4921;43.214;27.936;2022-12-31T04:41:58;102193.47;;;8.35;100.00
9764;BME280;4921;43.214;27.936;2022-12-31T04:44:24;102197.78;;;8.36;100.00
9764;BME280;4921;43.214;27.936;2022-12-31T04:46:52;102197.50;;;8.22;100.00
9764;BME280;4921;43.214;27.936;2022-12-31T04:49:18;102201.78;;;8.24;100.00
9764;BME280;4921;43.214;27.936;2022-12-31T04:51:45;102193.41;;;8.16;100.00
9764;BME280;4921;43.214;27.936;2022-12-31T04:54:12;102207.09;;;8.23;100.00
9764;BME280;4921;43.214;27.936;2022-12-31T04:56:39;102208.47;;;8.31;100.00
9764;BME280;4921;43.214;27.936;2022-12-31T04:59:08;102206.41;;;8.19;100.00
9764;BME280;4921;43.214;27.936;2022-12-31T05:01:34;102204.47;;;8.23;100.00
9764;BME280;4921;43.214;27.936;2022-12-31T05:04:03;102213.44;;;8.17;100.00
9764;BME280;4921;43.214;27.936;2022-12-31T05:06:30;102213.13;;;8.25;100.00
9764;BME280;4921;43.214;27.936;2022-12-31T05:08:57;102213.84;;;8.28;100.00
9764;BME280;4921;43.214;27.936;2022-12-31T05:11:23;102215.94;;;8.40;100.00
9764;BME280;4921;43.214;27.936;2022-12-31T05:13:50;102221.03;;;8.43;100.00
9764;BME280;4921;43.214;27.936;2022-12-31T05:16:19;102214.09;;;8.42;100.00
9764;BME280;4921;43.214;27.936;2022-12-31T05:18:46;102223.81;;;8.40;100.00
9764;BME280;4921;43.214;27.936;2022-12-31T05:21:17;102221.50;;;8.33;100.00
9764;BME280;4921;43.214;27.936;2022-12-31T05:23:45;102236.53;;;8.29;100.00
9764;BME280;4921;43.214;27.936;2022-12-31T05:26:13;102236.13;;;8.38;100.00
9764;BME280;4921;43.214;27.936;2022-12-31T05:28:40;102233.06;;;8.48;100.00
9764;BME280;4921;43.214;27.936;2022-12-31T05:31:08;102238.28;;;8.49;100.00
9764;BME280;4921;43.214;27.936;2022-12-31T05:33:36;102236.84;;;8.42;100.00
9764;BME280;4921;43.214;27.936;2022-12-31T05:36:03;102235.56;;;8.32;100.00
9764;BME280;4921;43.214;27.936;2022-12-31T05:38:30;102235.78;;;8.46;100.00
9764;BME280;4921;43.214;27.936;2022-12-31T05:41:01;102240.81;;;8.51;100.00
9764;BME280;4921;43.214;27.936;2022-12-31T05:43:28;102221.09;;;8.42;100.00
9764;BME280;4921;43.214;27.936;2022-12-31T05:45:55;102242.56;;;8.50;100.00
9764;BME280;4921;43.214;27.936;2022-12-31T05:48:22;102242.84;;;8.44;100.00
9764;BME280;4921;43.214;27.936;2022-12-31T05:50:51;102244.41;;;8.48;100.00
9764;BME280;4921;43.214;27.936;2022-12-31T05:53:17;102244.22;;;8.53;100.00
9764;BME280;4921;43.214;27.936;2022-12-31T05:55:45;102240.63;;;8.55;100.00
9764;BME280;4921;43.214;27.936;2022-12-31T05:58:13;102253.53;;;8.60;100.00
9764;BME280;4921;43.214;27.936;2022-12-31T06:00:41;102253.84;;;8.52;100.00
9764;BME280;4921;43.214;27.936;2022-12-31T06:03:08;102254.03;;;8.48;100.00
9764;BME280;4921;43.214;27.936;2022-12-31T06:05:40;102257.31;;;8.53;100.00
9764;BME280;4921;43.214;27.936;2022-12-31T06:08:09;102263.28;;;8.56;100.00
9764;BME280;4921;43.214;27.936;2022-12-31T06:10:36;102262.94;;;8.64;100.00
9764;BME280;4921;43.214;27.936;2022-12-31T06:13:04;102267.81;;;8.71;100.00
9764;BME280;4921;43.214;27.936;2022-12-31T06:15:31;102277.97;;;8.79;100.00
9764;BME280;4921;43.214;27.936;2022-12-31T06:17:57;102275.28;;;8.80;100.00
9764;BME280;4921;43.214;27.936;2022-12-31T06:20:24;102279.34;;;8.87;100.00
9764;BME280;4921;43.214;27.936;2022-12-31T06:22:52;102290.53;;;8.91;100.00
9764;BME280;4921;43.214;27.936;2022-12-31T06:25:20;102292.81;;;8.98;100.00
9764;BME280;4921;43.214;27.936;2022-12-31T06:27:47;102291.47;;;8.90;100.00
9764;BME280;4921;43.214;27.936;2022-12-31T06:30:14;102298.19;;;8.77;100.00
9764;BME280;4921;43.214;27.936;2022-12-31T06:32:41;102300.59;;;8.81;100.00
9764;BME280;4921;43.214;27.936;2022-12-31T06:35:08;102308.19;;;8.87;100.00
9764;BME280;4921;43.214;27.936;2022-12-31T06:37:35;102304.38;;;8.94;100.00
9764;BME280;4921;43.214;27.936;2022-12-31T06:40:03;102306.44;;;9.06;100.00
9764;BME280;4921;43.214;27.936;2022-12-31T06:42:31;102310.59;;;9.10;100.00
9764;BME280;4921;43.214;27.936;2022-12-31T06:44:58;102316.94;;;9.06;100.00
9764;BME280;4921;43.214;27.936;2022-12-31T06:47:25;102316.59;;;9.14;100.00
9764;BME280;4921;43.214;27.936;2022-12-31T06:49:52;102323.97;;;9.25;99.71
9764;BME280;4921;43.214;27.936;2022-12-31T06:52:19;102325.81;;;9.23;100.00
9764;BME280;4921;43.214;27.936;2022-12-31T06:54:47;102320.81;;;9.16;100.00
9764;BME280;4921;43.214;27.936;2022-12-31T06:57:14;102320.03;;;9.14;100.00
9764;BME280;4921;43.214;27.936;2022-12-31T06:59:43;102328.34;;;9.24;100.00
9764;BME280;4921;43.214;27.936;2022-12-31T07:02:23;102328.22;;;9.27;100.00
9764;BME280;4921;43.214;27.936;2022-12-31T07:05:22;102326.72;;;9.40;100.00
9764;BME280;4921;43.214;27.936;2022-12-31T07:08:00;102330.81;;;9.46;100.00
9764;BME280;4921;43.214;27.936;2022-12-31T07:10:37;102331.38;;;9.52;100.00
9764;BME280;4921;43.214;27.936;2022-12-31T07:13:29;102341.38;;;9.63;99.85
9764;BME280;4921;43.214;27.936;2022-12-31T07:16:09;102334.72;;;9.73;99.32
9764;BME280;4921;43.214;27.936;2022-12-31T07:18:43;102341.25;;;9.83;97.98
9764;BME280;4921;43.214;27.936;2022-12-31T07:21:13;102341.66;;;9.92;97.07
9764;BME280;4921;43.214;27.936;2022-12-31T07:23:41;102342.16;;;10.01;96.45
9764;BME280;4921;43.214;27.936;2022-12-31T07:26:15;102336.50;;;10.08;95.49
9764;BME280;4921;43.214;27.936;2022-12-31T07:28:52;102342.09;;;10.19;94.40
9764;BME280;4921;43.214;27.936;2022-12-31T07:31:34;102343.50;;;10.26;94.35
9764;BME280;4921;43.214;27.936;2022-12-31T07:34:12;102350.06;;;10.35;93.73
9764;BME280;4921;43.214;27.936;2022-12-31T07:36:52;102356.56;;;10.45;92.78
9764;BME280;4921;43.214;27.936;2022-12-31T07:39:29;102355.75;;;10.60;89.61
9764;BME280;4921;43.214;27.936;2022-12-31T07:42:04;102356.72;;;10.74;89.40
9764;BME280;4921;43.214;27.936;2022-12-31T07:44:44;102361.09;;;10.91;87.53
9764;BME280;4921;43.214;27.936;2022-12-31T07:47:21;102362.84;;;11.08;86.57
9764;BME280;4921;43.214;27.936;2022-12-31T07:49:49;102363.97;;;11.19;85.19
9764;BME280;4921;43.214;27.936;2022-12-31T07:52:17;102364.22;;;11.30;84.67
9764;BME280;4921;43.214;27.936;2022-12-31T07:54:45;102369.50;;;11.46;82.39
9764;BME280;4921;43.214;27.936;2022-12-31T07:57:13;102367.75;;;11.62;78.93
9764;BME280;4921;43.214;27.936;2022-12-31T07:59:50;102375.06;;;11.73;78.43
9764;BME280;4921;43.214;27.936;2022-12-31T08:02:31;102381.66;;;11.95;76.55
9764;BME280;4921;43.214;27.936;2022-12-31T08:05:05;102376.09;;;12.15;74.93
9764;BME280;4921;43.214;27.936;2022-12-31T08:07:36;102373.91;;;12.38;72.28
9764;BME280;4921;43.214;27.936;2022-12-31T08:10:16;102373.41;;;12.61;69.60
9764;BME280;4921;43.214;27.936;2022-12-31T08:12:46;102377.38;;;12.82;68.64
9764;BME280;4921;43.214;27.936;2022-12-31T08:15:17;102382.06;;;13.07;66.63
9764;BME280;4921;43.214;27.936;2022-12-31T08:17:45;102384.28;;;13.27;65.49
9764;BME280;4921;43.214;27.936;2022-12-31T08:20:13;102382.78;;;13.37;63.96
9764;BME280;4921;43.214;27.936;2022-12-31T08:22:59;102390.66;;;13.65;63.23
9764;BME280;4921;43.214;27.936;2022-12-31T08:25:33;102391.47;;;13.80;61.67
9764;BME280;4921;43.214;27.936;2022-12-31T08:28:09;102380.94;;;13.92;61.08
9764;BME280;4921;43.214;27.936;2022-12-31T08:30:46;102388.31;;;14.14;60.78
9764;BME280;4921;43.214;27.936;2022-12-31T08:33:24;102381.34;;;14.25;60.74
9764;BME280;4921;43.214;27.936;2022-12-31T08:36:09;102376.88;;;14.26;61.21
9764;BME280;4921;43.214;27.936;2022-12-31T08:38:43;102372.63;;;14.37;61.24
9764;BME280;4921;43.214;27.936;2022-12-31T08:41:18;102368.38;;;14.47;61.70
9764;BME280;4921;43.214;27.936;2022-12-31T08:43:56;102371.38;;;14.56;61.58
9764;BME280;4921;43.214;27.936;2022-12-31T08:46:29;102373.72;;;14.73;60.25
9764;BME280;4921;43.214;27.936;2022-12-31T08:49:02;102361.63;;;14.81;60.26
9764;BME280;4921;43.214;27.936;2022-12-31T08:51:43;102363.22;;;14.96;59.89
9764;BME280;4921;43.214;27.936;2022-12-31T08:54:11;102360.63;;;15.07;58.97
9764;BME280;4921;43.214;27.936;2022-12-31T08:56:42;102362.75;;;15.15;59.11
9764;BME280;4921;43.214;27.936;2022-12-31T08:59:27;102358.56;;;15.36;57.56
9764;BME280;4921;43.214;27.936;2022-12-31T09:02:12;102338.22;;;15.37;58.33
9764;BME280;4921;43.214;27.936;2022-12-31T09:04:55;102343.00;;;15.68;60.74
9764;BME280;4921;43.214;27.936;2022-12-31T09:07:35;102351.88;;;15.79;59.75
9764;BME280;4921;43.214;27.936;2022-12-31T09:10:14;102337.09;;;15.88;59.06
9764;BME280;4921;43.214;27.936;2022-12-31T09:12:50;102340.50;;;16.01;57.30
9764;BME280;4921;43.214;27.936;2022-12-31T09:15:25;102341.41;;;16.13;56.32
9764;BME280;4921;43.214;27.936;2022-12-31T09:17:56;102339.41;;;16.27;55.42
9764;BME280;4921;43.214;27.936;2022-12-31T09:20:27;102336.88;;;16.37;54.18
9764;BME280;4921;43.214;27.936;2022-12-31T09:22:55;102335.00;;;16.50;54.13
9764;BME280;4921;43.214;27.936;2022-12-31T09:25:24;102331.56;;;16.60;52.90
9764;BME280;4921;43.214;27.936;2022-12-31T09:28:00;102311.13;;;16.61;63.79
9764;BME280;4921;43.214;27.936;2022-12-31T09:30:35;102329.25;;;17.00;67.82
9764;BME280;4921;43.214;27.936;2022-12-31T09:33:09;102333.22;;;17.28;71.67
9764;BME280;4921;43.214;27.936;2022-12-31T09:35:43;102313.38;;;17.54;55.87
9764;BME280;4921;43.214;27.936;2022-12-31T09:38:17;102312.81;;;17.71;51.59
9764;BME280;4921;43.214;27.936;2022-12-31T09:41:12;102312.78;;;17.82;49.36
9764;BME280;4921;43.214;27.936;2022-12-31T09:47:06;102303.47;;;18.08;46.78
9764;BME280;4921;43.214;27.936;2022-12-31T09:52:50;102291.56;;;18.33;45.69
9764;BME280;4921;43.214;27.936;2022-12-31T09:55:32;102293.78;;;18.49;45.17
9764;BME280;4921;43.214;27.936;2022-12-31T09:58:11;102290.91;;;18.61;44.39
9764;BME280;4921;43.214;27.936;2022-12-31T10:00:43;102281.69;;;18.65;44.34
9764;BME280;4921;43.214;27.936;2022-12-31T10:03:25;102277.09;;;18.77;44.72
9764;BME280;4921;43.214;27.936;2022-12-31T10:06:11;102270.56;;;18.90;44.53
9764;BME280;4921;43.214;27.936;2022-12-31T10:09:01;102272.84;;;19.04;43.82
9764;BME280;4921;43.214;27.936;2022-12-31T10:11:48;102263.34;;;19.21;42.87
9764;BME280;4921;43.214;27.936;2022-12-31T10:14:33;102256.91;;;19.33;42.64
9764;BME280;4921;43.214;27.936;2022-12-31T10:17:15;102262.28;;;19.43;42.42
9764;BME280;4921;43.214;27.936;2022-12-31T10:23:07;102265.50;;;19.65;42.14
9764;BME280;4921;43.214;27.936;2022-12-31T10:25:49;102259.50;;;19.73;41.98
9764;BME280;4921;43.214;27.936;2022-12-31T10:28:29;102263.25;;;19.80;41.80
9764;BME280;4921;43.214;27.936;2022-12-31T10:31:05;102248.22;;;19.89;41.61
9764;BME280;4921;43.214;27.936;2022-12-31T10:33:42;102253.72;;;19.97;40.91
9764;BME280;4921;43.214;27.936;2022-12-31T10:36:17;102241.59;;;19.93;40.69
9764;BME280;4921;43.214;27.936;2022-12-31T10:38:54;102242.72;;;20.00;41.34
9764;BME280;4921;43.214;27.936;2022-12-31T10:44:39;102246.22;;;20.10;41.23
9764;BME280;4921;43.214;27.936;2022-12-31T10:47:37;102230.19;;;20.10;40.90
9764;BME280;4921;43.214;27.936;2022-12-31T10:50:37;102236.94;;;20.14;40.71
9764;BME280;4921;43.214;27.936;2022-12-31T10:57:10;102230.19;;;20.10;40.11
9764;BME280;4921;43.214;27.936;2022-12-31T10:59:54;102229.19;;;20.11;40.15
9764;BME280;4921;43.214;27.936;2022-12-31T11:06:27;102225.41;;;20.04;40.33
9764;BME280;4921;43.214;27.936;2022-12-31T11:12:03;102224.72;;;20.02;40.50
9764;BME280;4921;43.214;27.936;2022-12-31T11:14:56;102216.44;;;19.95;40.89
9764;BME280;4921;43.214;27.936;2022-12-31T11:17:36;102220.22;;;19.93;40.64
9764;BME280;4921;43.214;27.936;2022-12-31T11:20:21;102216.03;;;19.90;40.44
9764;BME280;4921;43.214;27.936;2022-12-31T11:22:59;102208.31;;;19.87;40.12
9764;BME280;4921;43.214;27.936;2022-12-31T11:25:43;102214.91;;;19.83;40.17
9764;BME280;4921;43.214;27.936;2022-12-31T11:32:05;102222.81;;;19.75;40.30
9764;BME280;4921;43.214;27.936;2022-12-31T11:34:54;102217.19;;;19.68;40.21
9764;BME280;4921;43.214;27.936;2022-12-31T11:37:34;102203.69;;;19.60;40.07
9764;BME280;4921;43.214;27.936;2022-12-31T11:40:20;102211.88;;;19.49;40.29
9764;BME280;4921;43.214;27.936;2022-12-31T11:42:53;102219.88;;;19.49;40.76
9764;BME280;4921;43.214;27.936;2022-12-31T11:45:33;102215.78;;;19.45;40.57
9764;BME280;4921;43.214;27.936;2022-12-31T11:48:13;102223.66;;;19.37;40.87
9764;BME280;4921;43.214;27.936;2022-12-31T11:50:50;102223.94;;;19.34;41.06
9764;BME280;4921;43.214;27.936;2022-12-31T11:53:48;102220.81;;;19.29;41.21
9764;BME280;4921;43.214;27.936;2022-12-31T11:56:17;102221.22;;;19.25;41.37
9764;BME280;4921;43.214;27.936;2022-12-31T11:58:46;102212.78;;;19.20;41.10
9764;BME280;4921;43.214;27.936;2022-12-31T12:01:17;102217.56;;;19.16;41.25
9764;BME280;4921;43.214;27.936;2022-12-31T12:03:48;102217.81;;;19.13;41.19
9764;BME280;4921;43.214;27.936;2022-12-31T12:06:16;102212.19;;;19.07;41.48
9764;BME280;4921;43.214;27.936;2022-12-31T12:08:44;102203.63;;;19.03;42.20
9764;BME280;4921;43.214;27.936;2022-12-31T12:11:17;102210.38;;;18.97;42.55
9764;BME280;4921;43.214;27.936;2022-12-31T12:13:46;102210.50;;;18.96;42.53
9764;BME280;4921;43.214;27.936;2022-12-31T12:16:14;102194.06;;;18.81;42.81
9764;BME280;4921;43.214;27.936;2022-12-31T12:18:43;102217.38;;;18.89;42.86
9764;BME280;4921;43.214;27.936;2022-12-31T12:21:13;102199.09;;;18.75;42.71
9764;BME280;4921;43.214;27.936;2022-12-31T12:23:53;102206.41;;;18.82;42.51
9764;BME280;4921;43.214;27.936;2022-12-31T12:26:29;102212.97;;;18.78;42.61
9764;BME280;4921;43.214;27.936;2022-12-31T12:29:01;102215.63;;;18.78;42.21
9764;BME280;4921;43.214;27.936;2022-12-31T12:31:34;102213.25;;;18.75;42.26
9764;BME280;4921;43.214;27.936;2022-12-31T12:34:03;102217.88;;;18.73;42.64
9764;BME280;4921;43.214;27.936;2022-12-31T12:36:31;102212.66;;;18.72;42.56
9764;BME280;4921;43.214;27.936;2022-12-31T12:39:01;102213.09;;;18.67;42.69
9764;BME280;4921;43.214;27.936;2022-12-31T12:41:28;102200.28;;;18.52;43.90
9764;BME280;4921;43.214;27.936;2022-12-31T12:44:03;102211.06;;;18.50;46.37
9764;BME280;4921;43.214;27.936;2022-12-31T12:46:33;102211.84;;;18.41;47.96
9764;BME280;4921;43.214;27.936;2022-12-31T12:49:01;102202.13;;;18.31;47.79
9764;BME280;4921;43.214;27.936;2022-12-31T12:51:46;102208.63;;;18.17;48.85
9764;BME280;4921;43.214;27.936;2022-12-31T12:54:26;102217.38;;;17.98;49.45
9764;BME280;4921;43.214;27.936;2022-12-31T12:57:01;102221.91;;;17.66;50.92
9764;BME280;4921;43.214;27.936;2022-12-31T12:59:52;102229.72;;;17.36;51.64
9764;BME280;4921;43.214;27.936;2022-12-31T13:02:51;102226.41;;;17.23;51.71
9764;BME280;4921;43.214;27.936;2022-12-31T13:05:30;102224.00;;;17.09;52.34
9764;BME280;4921;43.214;27.936;2022-12-31T13:08:11;102222.78;;;17.02;53.12
9764;BME280;4921;43.214;27.936;2022-12-31T13:11:07;102222.84;;;16.80;54.97
9764;BME280;4921;43.214;27.936;2022-12-31T13:13:46;102228.91;;;16.70;56.14
9764;BME280;4921;43.214;27.936;2022-12-31T13:16:19;102226.00;;;16.62;57.66
9764;BME280;4921;43.214;27.936;2022-12-31T13:18:54;102230.53;;;16.27;62.60
9764;BME280;4921;43.214;27.936;2022-12-31T13:21:43;102234.97;;;16.04;68.42
9764;BME280;4921;43.214;27.936;2022-12-31T13:24:31;102236.47;;;15.74;73.85
9764;BME280;4921;43.214;27.936;2022-12-31T13:27:05;102238.72;;;15.67;76.11
9764;BME280;4921;43.214;27.936;2022-12-31T13:29:37;102249.28;;;15.56;77.69
9764;BME280;4921;43.214;27.936;2022-12-31T13:32:07;102250.25;;;15.55;78.17
9764;BME280;4921;43.214;27.936;2022-12-31T13:34:39;102252.97;;;15.30;83.25
9764;BME280;4921;43.214;27.936;2022-12-31T13:37:20;102251.25;;;15.05;88.55
9764;BME280;4921;43.214;27.936;2022-12-31T13:39:53;102258.31;;;14.94;90.96
9764;BME280;4921;43.214;27.936;2022-12-31T13:42:24;102265.13;;;14.73;94.27
9764;BME280;4921;43.214;27.936;2022-12-31T13:44:58;102275.72;;;14.60;99.85
9764;BME280;4921;43.214;27.936;2022-12-31T13:47:29;102280.50;;;14.42;100.00
9764;BME280;4921;43.214;27.936;2022-12-31T13:50:01;102281.72;;;14.12;100.00
9764;BME280;4921;43.214;27.936;2022-12-31T13:52:36;102283.50;;;13.99;100.00
9764;BME280;4921;43.214;27.936;2022-12-31T13:55:13;102295.50;;;13.77;100.00
9764;BME280;4921;43.214;27.936;2022-12-31T13:57:45;102309.66;;;13.76;100.00
9764;BME280;4921;43.214;27.936;2022-12-31T14:00:20;102289.63;;;13.33;100.00